Lehmann Sound — V2EM3 — position and weather

sailwx.info

Track history (hours):
 
Tides and Currents Weather Stations Pressure Air Temp Water Temp Dewpoint Dewpoint Depression Visibility Wind Speed Wind Dir Waves Ship Positions

Lehmann Sound

Last reported at 2015-Jan-25 08:11 UTC. Time now 2015-Feb-01 07:15 UTC.
Position N 57°16' E 017°39'.

Length 90 m; draft 4.9 m.

Type: Cargo ship. MMSI: 305476000.

Date/timePositionNaut miles runAvg speedWind from/ knotsBaromVisibWave heightAir tempDewpointWater temp
2015-Jan-25 08:11N 57°16' E 017°39'710.6
2015-Jan-25 07:32N 57°09' E 017°35'13010.4
2015-Jan-24 19:03N 55°30' E 015°03'611.0
2015-Jan-24 18:31N 55°28' E 014°54'2110.5
2015-Jan-24 16:31N 55°14' E 014°26'4010.2
2015-Jan-24 12:33N 55°13' E 013°16'1010.3
2015-Jan-24 11:33N 55°14' E 012°58'1010.3
2015-Jan-24 10:33N 55°17' E 012°41'8 7.9
2015-Jan-24 09:33N 55°25' E 012°40'9 8.6
2015-Jan-24 08:33N 55°34' E 012°42'7 6.6
2015-Jan-24 07:33N 55°40' E 012°41'9 8.5
2015-Jan-24 06:33N 55°49' E 012°42'9 8.7
2015-Jan-24 05:33N 55°57' E 012°37'8 7.6
2015-Jan-24 04:33N 56°05' E 012°36'8 7.6
2015-Jan-24 03:33N 56°09' E 012°25'1010.2
2015-Jan-24 02:33N 56°15' E 012°10'  
2015-Jan-21 18:31N 56°09' E 010°13'0 0.0
2015-Jan-21 17:31N 56°09' E 010°13'0 0.0
2015-Jan-21 16:31N 56°09' E 010°13'0 0.0
2015-Jan-21 15:31N 56°09' E 010°13'0 0.0
2015-Jan-21 14:31N 56°09' E 010°13'0 0.0
2015-Jan-21 13:31N 56°09' E 010°13'0 0.0
2015-Jan-21 12:31N 56°09' E 010°13'0 0.0
2015-Jan-21 11:31N 56°09' E 010°13'0 0.0
2015-Jan-21 10:31N 56°09' E 010°13'0 0.0
2015-Jan-21 09:31N 56°09' E 010°13'0 0.0
2015-Jan-21 08:34N 56°09' E 010°13'0 0.0
2015-Jan-21 07:33N 56°09' E 010°13'0 0.0
2015-Jan-21 06:33N 56°09' E 010°13'0 0.0
2015-Jan-20 17:33N 56°09' E 010°13'4 4.4
2015-Jan-20 16:33N 56°08' E 010°21'60 8.6
2015-Jan-20 09:33N 56°17' E 012°07'1110.7
2015-Jan-20 08:33N 56°11' E 012°23'1312.7
2015-Jan-20 07:34N 56°03' E 012°40'1211.6
2015-Jan-20 06:33N 55°51' E 012°44'1211.6
2015-Jan-20 05:33N 55°40' E 012°42'1211.7
2015-Jan-20 04:33N 55°28' E 012°43'1010.2
2015-Jan-20 03:33N 55°18' E 012°44'1010.2
2015-Jan-20 02:33N 55°16' E 013°02'1211.1
2015-Jan-20 01:31N 55°15' E 013°22'1111.1
2015-Jan-20 00:33N 55°15' E 013°41'1110.9
2015-Jan-19 23:34N 55°14' E 013°60'1010.3
2015-Jan-19 22:34N 55°15' E 014°18'1110.6
2015-Jan-19 21:33N 55°24' E 014°30'1010.1
2015-Jan-19 20:34N 55°30' E 014°43'1010.2
2015-Jan-19 19:33N 55°35' E 014°59'10 9.9
2015-Jan-19 18:33N 55°40' E 015°14'  
Track history (hours):
 
Tides and Currents Weather Stations Pressure Air Temp Water Temp Dewpoint Dewpoint Depression Visibility Wind Speed Wind Dir Waves Ship Positions

Lehmann Sound

Last reported at 2015-Jan-25 08:11 UTC. Time now 2015-Feb-01 07:15 UTC.
Position N 57°16' E 017°39'.

Length 90 m; draft 4.9 m.

Type: Cargo ship. MMSI: 305476000.

Date/timePositionNaut miles runAvg speedWind from/ knotsBaromVisibWave heightAir tempDewpointWater temp
2015-Jan-25 08:11N 57°16' E 017°39'710.6
2015-Jan-25 07:32N 57°09' E 017°35'13010.4
2015-Jan-24 19:03N 55°30' E 015°03'611.0
2015-Jan-24 18:31N 55°28' E 014°54'2110.5
2015-Jan-24 16:31N 55°14' E 014°26'4010.2
2015-Jan-24 12:33N 55°13' E 013°16'1010.3
2015-Jan-24 11:33N 55°14' E 012°58'1010.3
2015-Jan-24 10:33N 55°17' E 012°41'8 7.9
2015-Jan-24 09:33N 55°25' E 012°40'9 8.6
2015-Jan-24 08:33N 55°34' E 012°42'7 6.6
2015-Jan-24 07:33N 55°40' E 012°41'9 8.5
2015-Jan-24 06:33N 55°49' E 012°42'9 8.7
2015-Jan-24 05:33N 55°57' E 012°37'8 7.6
2015-Jan-24 04:33N 56°05' E 012°36'8 7.6
2015-Jan-24 03:33N 56°09' E 012°25'1010.2
2015-Jan-24 02:33N 56°15' E 012°10'  
2015-Jan-21 18:31N 56°09' E 010°13'0 0.0
2015-Jan-21 17:31N 56°09' E 010°13'0 0.0
2015-Jan-21 16:31N 56°09' E 010°13'0 0.0
2015-Jan-21 15:31N 56°09' E 010°13'0 0.0
2015-Jan-21 14:31N 56°09' E 010°13'0 0.0
2015-Jan-21 13:31N 56°09' E 010°13'0 0.0
2015-Jan-21 12:31N 56°09' E 010°13'0 0.0
2015-Jan-21 11:31N 56°09' E 010°13'0 0.0
2015-Jan-21 10:31N 56°09' E 010°13'0 0.0
2015-Jan-21 09:31N 56°09' E 010°13'0 0.0
2015-Jan-21 08:34N 56°09' E 010°13'0 0.0
2015-Jan-21 07:33N 56°09' E 010°13'0 0.0
2015-Jan-21 06:33N 56°09' E 010°13'0 0.0
2015-Jan-20 17:33N 56°09' E 010°13'4 4.4
2015-Jan-20 16:33N 56°08' E 010°21'60 8.6
2015-Jan-20 09:33N 56°17' E 012°07'1110.7
2015-Jan-20 08:33N 56°11' E 012°23'1312.7
2015-Jan-20 07:34N 56°03' E 012°40'1211.6
2015-Jan-20 06:33N 55°51' E 012°44'1211.6
2015-Jan-20 05:33N 55°40' E 012°42'1211.7
2015-Jan-20 04:33N 55°28' E 012°43'1010.2
2015-Jan-20 03:33N 55°18' E 012°44'1010.2
2015-Jan-20 02:33N 55°16' E 013°02'1211.1
2015-Jan-20 01:31N 55°15' E 013°22'1111.1
2015-Jan-20 00:33N 55°15' E 013°41'1110.9
2015-Jan-19 23:34N 55°14' E 013°60'1010.3
2015-Jan-19 22:34N 55°15' E 014°18'1110.6
2015-Jan-19 21:33N 55°24' E 014°30'1010.1
2015-Jan-19 20:34N 55°30' E 014°43'1010.2
2015-Jan-19 19:33N 55°35' E 014°59'10 9.9
2015-Jan-19 18:33N 55°40' E 015°14'  

Dump ship's entire track history